createdAt,value
2018-07-09T00:00:05.156Z,35.4
2018-07-09T00:02:05.909Z,35.5
2018-07-09T00:04:05.122Z,35.5
2018-07-09T00:08:19.248Z,35.6
2018-07-09T00:10:05.502Z,35.6
2018-07-09T00:12:05.171Z,35.6
2018-07-09T00:14:05.874Z,35.6
2018-07-09T00:16:05.507Z,35.7
2018-07-09T00:18:05.951Z,35.8
2018-07-09T00:20:05.196Z,35.8
2018-07-09T00:22:05.855Z,35.8
2018-07-09T00:24:05.558Z,35.9
2018-07-09T00:26:05.268Z,35.9
2018-07-09T00:28:11.032Z,36
2018-07-09T00:30:05.691Z,36
2018-07-09T00:32:05.408Z,36
2018-07-09T00:34:05.211Z,36
2018-07-09T00:36:05.922Z,36.1
2018-07-09T00:38:05.604Z,36.2
2018-07-09T00:40:05.351Z,36.2
2018-07-09T00:42:05.029Z,36.2
2018-07-09T00:44:05.717Z,36.2
2018-07-09T00:46:05.381Z,36.3
2018-07-09T00:48:05.067Z,36.3
2018-07-09T00:50:05.749Z,36.3
2018-07-09T00:52:05.972Z,36.4
2018-07-09T00:54:08.169Z,36.5
2018-07-09T00:56:05.946Z,36.2
2018-07-09T00:58:05.656Z,36.4
2018-07-09T01:00:05.330Z,36.6
2018-07-09T01:02:07.627Z,36.6
2018-07-09T01:04:05.315Z,36.4
2018-07-09T01:06:07.555Z,36.5
2018-07-09T01:08:05.347Z,36.5
2018-07-09T01:10:05.078Z,36.7
2018-07-09T01:12:05.838Z,36.5
2018-07-09T01:14:05.539Z,36.8
2018-07-09T01:16:07.729Z,36.6
2018-07-09T01:18:08.152Z,36.7
2018-07-09T01:20:12.967Z,36.6
2018-07-09T01:22:05.771Z,36.7
2018-07-09T01:24:05.500Z,36.8
2018-07-09T01:26:05.200Z,36.8
2018-07-09T01:28:05.860Z,36.8
2018-07-09T01:30:05.564Z,36.9
2018-07-09T01:32:05.313Z,36.9
2018-07-09T01:34:05.545Z,36.9
2018-07-09T01:36:05.252Z,36.9
2018-07-09T01:38:08.494Z,37
2018-07-09T01:40:05.148Z,37
2018-07-09T01:42:05.801Z,37.1
2018-07-09T01:44:05.995Z,37.2
2018-07-09T01:46:10.255Z,37.2
2018-07-09T01:48:05.962Z,37.2
2018-07-09T01:50:05.660Z,37.3
2018-07-09T01:52:10.470Z,37.3
2018-07-09T01:54:05.722Z,37.3
2018-07-09T01:56:05.455Z,37.2
2018-07-09T01:58:07.756Z,37.3
2018-07-09T02:00:05.428Z,37.3
2018-07-09T02:02:05.130Z,37.5
2018-07-09T02:04:05.831Z,37.4
2018-07-09T02:06:08.153Z,37.4
2018-07-09T02:08:05.885Z,37.4
2018-07-09T02:10:05.706Z,37.4
2018-07-09T02:12:11.066Z,37.5
2018-07-09T02:14:08.310Z,37.5
2018-07-09T02:16:05.076Z,37.5
2018-07-09T02:18:08.613Z,37.7
2018-07-09T02:20:05.333Z,37.7
2018-07-09T02:22:05.064Z,37.7
2018-07-09T02:24:05.880Z,37.7
2018-07-09T02:26:05.653Z,37.8
2018-07-09T02:28:05.323Z,37.8
2018-07-09T02:30:05.608Z,37.7
2018-07-09T02:32:05.395Z,37.8
2018-07-09T02:34:10.185Z,37.8
2018-07-09T02:36:05.848Z,37.8
2018-07-09T02:38:05.591Z,37.9
2018-07-09T02:40:12.918Z,37.7
2018-07-09T02:42:10.210Z,37.9
2018-07-09T02:44:08.556Z,38
2018-07-09T02:46:05.292Z,37.8
2018-07-09T02:48:05.023Z,38
2018-07-09T02:50:05.740Z,38
2018-07-09T02:52:05.455Z,38
2018-07-09T02:54:05.160Z,38.1
2018-07-09T02:56:07.949Z,38.1
2018-07-09T02:58:05.612Z,37.9
2018-07-09T03:00:05.295Z,37.9
2018-07-09T03:02:05.072Z,38
2018-07-09T03:04:05.284Z,38
2018-07-09T03:06:11.103Z,38.1
2018-07-09T03:08:05.447Z,38.1
2018-07-09T03:10:05.172Z,38.1
2018-07-09T03:12:05.871Z,38.1
2018-07-09T03:14:05.598Z,38.1
2018-07-09T03:16:07.923Z,38.2
2018-07-09T03:18:05.822Z,38.1
2018-07-09T03:20:05.600Z,38.2
2018-07-09T03:22:05.325Z,38.2
2018-07-09T03:24:11.062Z,38.3
2018-07-09T03:26:05.790Z,38.3
2018-07-09T03:28:05.533Z,38.3
2018-07-09T03:30:05.262Z,38.3
2018-07-09T03:32:05.938Z,38.1
2018-07-09T03:34:05.759Z,38.3
2018-07-09T03:36:05.014Z,38.4
2018-07-09T03:38:05.712Z,38.5
2018-07-09T03:40:07.909Z,38.5
2018-07-09T03:42:05.104Z,38.3
2018-07-09T03:44:05.789Z,38.5
2018-07-09T03:46:05.467Z,38.5
2018-07-09T03:48:05.187Z,38.5
2018-07-09T03:50:05.867Z,38.3
2018-07-09T03:52:08.065Z,38.3
2018-07-09T03:54:05.733Z,38.3
2018-07-09T03:56:05.429Z,38.5
2018-07-09T03:58:08.184Z,38.5
2018-07-09T04:00:10.908Z,38.5
2018-07-09T04:02:05.660Z,38.5
2018-07-09T04:04:05.969Z,38.5
2018-07-09T04:06:05.647Z,38.7
2018-07-09T04:08:12.974Z,38.6
2018-07-09T04:10:05.695Z,38.8
2018-07-09T04:12:05.456Z,38.8
2018-07-09T04:14:05.846Z,38.6
2018-07-09T04:16:07.644Z,38.6
2018-07-09T04:18:05.100Z,38.8
2018-07-09T04:20:05.856Z,38.9
2018-07-09T04:22:08.062Z,38.9
2018-07-09T04:24:06.016Z,38.8
2018-07-09T04:26:05.918Z,38.9
2018-07-09T04:28:05.647Z,39
2018-07-09T04:30:05.323Z,39
2018-07-09T04:32:08.503Z,38.9
2018-07-09T04:34:07.730Z,38.9
2018-07-09T04:36:05.476Z,38.9
2018-07-09T04:38:05.188Z,39
2018-07-09T04:40:05.920Z,39
2018-07-09T04:42:13.273Z,39
2018-07-09T04:44:11.862Z,38.9
2018-07-09T04:46:05.379Z,39.5
2018-07-09T04:48:07.637Z,39.1
2018-07-09T04:50:05.455Z,39
2018-07-09T04:52:07.690Z,39.1
2018-07-09T04:54:07.726Z,39.1
2018-07-09T04:56:07.920Z,39.1
2018-07-09T04:58:07.654Z,39.1
2018-07-09T05:00:05.327Z,39.1
2018-07-09T05:02:08.505Z,39.1
2018-07-09T05:04:07.784Z,39
2018-07-09T05:06:05.471Z,39.1
2018-07-09T05:08:05.689Z,39
2018-07-09T05:10:05.338Z,39.2
2018-07-09T05:12:05.984Z,39.1
2018-07-09T05:14:10.775Z,39.1
2018-07-09T05:16:05.467Z,38.9
2018-07-09T05:18:07.916Z,39.2
2018-07-09T05:20:08.128Z,39.1
2018-07-09T05:22:05.826Z,39.2
2018-07-09T05:24:05.130Z,39.1
2018-07-09T05:26:05.101Z,39.1
2018-07-09T05:28:05.946Z,39.1
2018-07-09T05:30:08.433Z,39.1
2018-07-09T05:32:08.202Z,39.3
2018-07-09T05:34:05.914Z,39.3
2018-07-09T05:36:05.693Z,39.3
2018-07-09T05:38:05.369Z,39.3
2018-07-09T05:40:12.697Z,39.2
2018-07-09T05:42:05.970Z,39.2
2018-07-09T05:44:08.163Z,39.1
2018-07-09T05:46:05.335Z,39.1
2018-07-09T05:48:05.041Z,39.3
2018-07-09T05:50:05.771Z,39.2
2018-07-09T05:52:05.516Z,39.2
2018-07-09T05:54:05.747Z,39.2
2018-07-09T05:56:05.458Z,39.2
2018-07-09T05:58:05.147Z,39.4
2018-07-09T06:00:05.915Z,39.4
2018-07-09T06:02:08.139Z,39.4
2018-07-09T06:04:05.792Z,39.4
2018-07-09T06:06:05.996Z,39.4
2018-07-09T06:08:07.732Z,39.6
2018-07-09T06:10:05.378Z,39.6
2018-07-09T06:12:07.929Z,39.5
2018-07-09T06:14:05.705Z,39.4
2018-07-09T06:16:08.139Z,39.5
2018-07-09T06:18:05.097Z,39.5
2018-07-09T06:20:07.875Z,39.5
2018-07-09T06:22:10.564Z,39.5
2018-07-09T06:24:05.255Z,39.5
2018-07-09T06:26:05.951Z,39.5
2018-07-09T06:28:08.152Z,39.5
2018-07-09T06:30:05.801Z,39.6
2018-07-09T06:32:05.491Z,39.5
2018-07-09T06:34:05.264Z,39.7
2018-07-09T06:36:05.979Z,39.7
2018-07-09T06:38:05.273Z,39.6
2018-07-09T06:40:05.940Z,39.6
2018-07-09T06:42:05.161Z,39.5
2018-07-09T06:44:05.929Z,39.5
2018-07-09T06:46:05.157Z,39.7
2018-07-09T06:48:05.104Z,39.6
2018-07-09T06:50:05.191Z,39.6
2018-07-09T06:52:05.095Z,39.6
2018-07-09T06:54:06.009Z,39.6
2018-07-09T06:56:05.729Z,39.6
2018-07-09T06:58:07.938Z,39.4
2018-07-09T07:00:05.681Z,39.5
2018-07-09T07:02:10.442Z,39.7
2018-07-09T07:04:05.264Z,39.7
2018-07-09T07:06:05.924Z,39.6
2018-07-09T07:08:05.599Z,39.6
2018-07-09T07:10:05.304Z,39.6
2018-07-09T07:12:05.576Z,38.9
2018-07-09T07:14:05.329Z,38.9
2018-07-09T07:16:07.577Z,38.9
2018-07-09T07:18:06.132Z,38.7
2018-07-09T07:20:06.247Z,38.7
2018-07-09T07:22:06.039Z,38.9
2018-07-09T07:24:05.742Z,38.8
2018-07-09T07:26:05.471Z,38.5
2018-07-09T07:28:05.260Z,38.9
2018-07-09T07:30:06.008Z,38.9
2018-07-09T07:32:05.669Z,38.9
2018-07-09T07:34:07.933Z,38.7
2018-07-09T07:36:05.599Z,38.9
2018-07-09T07:38:05.807Z,38.7
2018-07-09T07:40:05.422Z,38.7
2018-07-09T07:42:07.592Z,38.3
2018-07-09T07:44:05.372Z,38.3
2018-07-09T07:46:08.192Z,37.9
2018-07-09T07:48:05.901Z,37.8
2018-07-09T07:50:05.719Z,37.8
2018-07-09T07:52:13.197Z,37.8
2018-07-09T07:54:05.919Z,37.6
2018-07-09T07:56:05.603Z,38
2018-07-09T07:58:05.325Z,38.2
2018-07-09T08:00:05.053Z,38.4
2018-07-09T08:02:05.721Z,38.2
2018-07-09T08:04:05.475Z,38.1
2018-07-09T08:06:05.272Z,37.8
2018-07-09T08:08:06.004Z,38
2018-07-09T08:10:05.756Z,38
2018-07-09T08:13:13.738Z,37.7
2018-07-09T08:14:05.033Z,37.8
2018-07-09T08:16:05.739Z,37.7
2018-07-09T08:18:08.315Z,37.9
2018-07-09T08:20:05.007Z,37.9
2018-07-09T08:22:10.810Z,37.5
2018-07-09T08:24:08.041Z,37.5
2018-07-09T08:26:05.761Z,37.5
2018-07-09T08:28:05.496Z,37.7
2018-07-09T08:30:05.287Z,37.4
2018-07-09T08:32:08.533Z,37.6
2018-07-09T08:34:05.323Z,37.7
2018-07-09T08:36:05.089Z,37.7
2018-07-09T08:38:05.928Z,37.7
2018-07-09T08:40:05.700Z,37.8
2018-07-09T08:42:05.449Z,37.6
2018-07-09T08:44:05.168Z,37.6
2018-07-09T08:46:08.373Z,37.6
2018-07-09T08:48:07.684Z,37.5
2018-07-09T08:50:05.437Z,37.4
2018-07-09T08:52:05.727Z,37.9
2018-07-09T08:54:08.144Z,37.5
2018-07-09T08:56:05.821Z,37.4
2018-07-09T08:58:05.502Z,37.8
2018-07-09T09:00:05.282Z,37.8
2018-07-09T09:02:06.017Z,38.2
2018-07-09T09:04:05.777Z,38.6
2018-07-09T09:06:05.489Z,38.5
2018-07-09T09:08:13.298Z,38.7
2018-07-09T09:10:06.208Z,38.5
2018-07-09T09:12:05.102Z,38.7
2018-07-09T09:14:07.556Z,38.9
2018-07-09T09:16:05.222Z,38.7
2018-07-09T09:18:05.117Z,38.7
2018-07-09T09:20:05.347Z,39
2018-07-09T09:22:05.102Z,39
2018-07-09T09:24:10.360Z,39.1
2018-07-09T09:26:05.586Z,39.1
2018-07-09T09:28:07.922Z,39.2
2018-07-09T09:30:05.615Z,39.2
2018-07-09T09:32:05.299Z,39.3
2018-07-09T09:34:10.545Z,39.7
2018-07-09T09:36:07.798Z,39.5
2018-07-09T09:38:05.522Z,39.9
2018-07-09T09:40:05.233Z,39.8
2018-07-09T09:42:05.987Z,39.9
2018-07-09T09:44:05.698Z,39.9
2018-07-09T09:46:05.345Z,40
2018-07-09T09:48:05.019Z,40.1
2018-07-09T09:50:05.826Z,39.7
2018-07-09T09:52:05.587Z,39.8
2018-07-09T09:54:05.273Z,40
2018-07-09T09:56:05.953Z,39.9
2018-07-09T09:58:05.653Z,39.5
2018-07-09T10:00:07.899Z,40.4
2018-07-09T10:02:05.574Z,40.2
2018-07-09T10:04:05.269Z,40.3
2018-07-09T10:06:08.073Z,40.5
2018-07-09T10:08:05.090Z,40.5
2018-07-09T10:10:05.825Z,41.1
2018-07-09T10:12:08.086Z,39.6
2018-07-09T10:14:05.971Z,39.6
2018-07-09T10:16:05.683Z,39.3
2018-07-09T10:18:05.586Z,38.9
2018-07-09T10:20:05.275Z,39
2018-07-09T10:22:08.477Z,38.3
2018-07-09T10:24:10.225Z,38.3
2018-07-09T10:26:11.008Z,38
2018-07-09T10:28:05.703Z,38.2
2018-07-09T10:30:05.485Z,37.8
2018-07-09T10:32:05.243Z,37.6
2018-07-09T10:34:05.901Z,37.5
2018-07-09T10:36:05.623Z,37.4
2018-07-09T10:38:05.292Z,38
2018-07-09T10:40:05.982Z,37.6
2018-07-09T10:42:05.828Z,38
2018-07-09T10:44:05.528Z,38
2018-07-09T10:46:10.512Z,37.9
2018-07-09T10:48:07.721Z,37.6
2018-07-09T10:50:05.003Z,37.6
2018-07-09T10:52:05.755Z,37.6
2018-07-09T10:54:05.498Z,37.6
2018-07-09T10:56:05.222Z,37.8
2018-07-09T10:58:06.688Z,37.5
2018-07-09T11:00:07.967Z,37.3
2018-07-09T11:02:05.678Z,37.4
2018-07-09T11:04:05.622Z,37.7
2018-07-09T11:06:05.287Z,37.6
2018-07-09T11:08:05.967Z,37.5
2018-07-09T11:10:05.625Z,37.6
2018-07-09T11:12:12.991Z,37.6
2018-07-09T11:14:10.793Z,37.5
2018-07-09T11:16:05.457Z,37.5
2018-07-09T11:18:16.084Z,37.4
2018-07-09T11:20:06.423Z,37.5
2018-07-09T11:22:05.105Z,37.7
2018-07-09T11:24:05.818Z,37.4
2018-07-09T11:26:05.556Z,37.6
2018-07-09T11:28:05.259Z,37.6
2018-07-09T11:30:05.893Z,37.8
2018-07-09T11:32:10.618Z,37.6
2018-07-09T11:34:05.351Z,37.7
2018-07-09T11:36:07.953Z,37.7
2018-07-09T11:38:06.028Z,37.7
2018-07-09T11:40:05.739Z,37.5
2018-07-09T11:42:05.639Z,37.4
2018-07-09T11:44:05.499Z,37.4
2018-07-09T11:46:05.202Z,37.8
2018-07-09T11:48:05.897Z,37.9
2018-07-09T11:50:05.588Z,38
2018-07-09T11:52:05.479Z,38
2018-07-09T11:54:05.264Z,38
2018-07-09T11:56:05.922Z,38.1
2018-07-09T11:58:05.564Z,38.3
2018-07-09T12:00:05.272Z,38.3
2018-07-09T12:02:08.492Z,38.4
2018-07-09T12:04:07.691Z,38.4
2018-07-09T12:06:08.916Z,38.5
2018-07-09T12:08:06.616Z,38.5
2018-07-09T12:10:05.293Z,38.5
2018-07-09T12:12:05.956Z,38.5
2018-07-09T12:14:08.212Z,38.5
2018-07-09T12:16:05.485Z,38.7
2018-07-09T12:18:05.963Z,38.7
2018-07-09T12:20:08.186Z,38.7
2018-07-09T12:22:05.887Z,38.5
2018-07-09T12:24:08.157Z,38.6
2018-07-09T12:26:05.851Z,38.6
2018-07-09T12:28:08.123Z,38.8
2018-07-09T12:30:10.910Z,38.8
2018-07-09T12:32:05.602Z,38.6
2018-07-09T12:34:05.268Z,38.9
2018-07-09T12:36:06.125Z,38.9
2018-07-09T12:38:05.934Z,38.9
2018-07-09T12:40:05.652Z,38.8
2018-07-09T12:42:13.569Z,38.9
2018-07-09T12:44:05.254Z,38.9
2018-07-09T12:46:05.918Z,39
2018-07-09T12:48:05.592Z,38.9
2018-07-09T12:50:07.820Z,39.2
2018-07-09T12:52:08.000Z,38.9
2018-07-09T12:54:05.207Z,38.9
2018-07-09T12:56:05.455Z,39.2
2018-07-09T12:58:05.170Z,39.1
2018-07-09T13:00:10.431Z,39
2018-07-09T13:02:05.669Z,39
2018-07-09T13:04:07.942Z,39.3
2018-07-09T13:06:05.636Z,39.3
2018-07-09T13:08:05.304Z,39.3
2018-07-09T13:10:04.965Z,39.3
2018-07-09T13:12:10.735Z,39.3
2018-07-09T13:14:05.462Z,39.3
2018-07-09T13:16:05.201Z,39.6
2018-07-09T13:18:05.058Z,39.6
2018-07-09T13:20:05.745Z,39.5
2018-07-09T13:22:05.974Z,39.5
2018-07-09T13:24:08.263Z,39.5
2018-07-09T13:26:06.002Z,39.4
2018-07-09T13:28:15.853Z,39.5
2018-07-09T13:30:05.564Z,39.5
2018-07-09T13:32:05.244Z,39.4
2018-07-09T13:34:05.984Z,39.5
2018-07-09T13:36:08.261Z,39.6
2018-07-09T13:38:05.955Z,39.6
2018-07-09T13:40:05.617Z,39.6
2018-07-09T13:42:05.302Z,39.7
2018-07-09T13:44:06.057Z,39.6
2018-07-09T13:46:05.876Z,39.8
2018-07-09T13:48:05.581Z,39.8
2018-07-09T13:50:10.319Z,39.9
2018-07-09T13:52:05.928Z,39.9
2018-07-09T13:54:05.697Z,39.8
2018-07-09T13:56:05.440Z,40
2018-07-09T13:58:05.148Z,40.1
2018-07-09T14:00:05.843Z,40.2
2018-07-09T14:02:05.746Z,39.9
2018-07-09T14:04:05.557Z,40.2
2018-07-09T14:06:05.433Z,40.1
2018-07-09T14:08:05.160Z,40
2018-07-09T14:10:05.932Z,39.9
2018-07-09T14:12:05.866Z,39.9
2018-07-09T14:14:10.259Z,40.1
2018-07-09T14:16:08.580Z,40.2
2018-07-09T14:18:05.547Z,40.2
2018-07-09T14:20:05.262Z,40.1
2018-07-09T14:22:05.967Z,40
2018-07-09T14:24:05.217Z,40.4
2018-07-09T14:26:05.876Z,40.2
2018-07-09T14:28:05.588Z,40.3
2018-07-09T14:30:05.290Z,40.4
2018-07-09T14:32:05.970Z,40.4
2018-07-09T14:34:05.699Z,40.2
2018-07-09T14:36:05.387Z,40.1
2018-07-09T14:38:05.078Z,40.1
2018-07-09T14:40:05.773Z,40.2
2018-07-09T14:42:08.506Z,40.3
2018-07-09T14:44:10.261Z,40.2
2018-07-09T14:46:05.165Z,40.2
2018-07-09T14:48:05.156Z,40.3
2018-07-09T14:50:13.398Z,40.2
2018-07-09T14:52:07.586Z,40.2
2018-07-09T14:54:10.336Z,40.3
2018-07-09T14:56:05.567Z,40.3
2018-07-09T14:58:05.278Z,40.2
2018-07-09T15:00:06.030Z,40.3
2018-07-09T15:02:05.720Z,40.2
2018-07-09T15:04:05.487Z,40.3
2018-07-09T15:06:05.160Z,40.2
2018-07-09T15:08:05.606Z,40.2
2018-07-09T15:10:05.370Z,40.2
2018-07-09T15:12:05.151Z,40.1
2018-07-09T15:14:05.910Z,40
2018-07-09T15:16:13.243Z,39.9
2018-07-09T15:18:10.196Z,39.9
2018-07-09T15:20:05.865Z,39.9
2018-07-09T15:22:05.614Z,39.9
2018-07-09T15:24:07.862Z,39.9
2018-07-09T15:26:10.572Z,40
2018-07-09T15:28:05.804Z,40
2018-07-09T15:30:10.579Z,40
2018-07-09T15:32:12.909Z,39.9
2018-07-09T15:34:05.606Z,39.9
2018-07-09T15:36:05.336Z,40
2018-07-09T15:38:05.865Z,40
2018-07-09T15:40:05.546Z,39.8
2018-07-09T15:42:05.770Z,39.9
2018-07-09T15:44:08.019Z,40
2018-07-09T15:46:05.880Z,39.9
2018-07-09T15:48:05.563Z,40.1
2018-07-09T15:50:05.256Z,40.2
2018-07-09T15:52:11.210Z,40
2018-07-09T15:54:08.637Z,40.2
2018-07-09T15:56:05.410Z,40.3
2018-07-09T15:58:05.664Z,40
2018-07-09T16:00:05.592Z,40.1
2018-07-09T16:02:05.566Z,40.2
2018-07-09T16:04:11.283Z,40.2
2018-07-09T16:06:05.370Z,40.2
2018-07-09T16:08:05.207Z,40.2
2018-07-09T16:10:05.953Z,40.1
2018-07-09T16:12:05.667Z,40.1
2018-07-09T16:14:05.381Z,40.3
2018-07-09T16:16:05.176Z,40.1
2018-07-09T16:18:05.090Z,40.1
2018-07-09T16:20:05.732Z,40.1
2018-07-09T16:22:08.484Z,40.2
2018-07-09T16:24:05.755Z,40.2
2018-07-09T16:26:05.590Z,40.2
2018-07-09T16:28:05.099Z,40.3
2018-07-09T16:30:05.809Z,40.3
2018-07-09T16:32:10.566Z,40.3
2018-07-09T16:34:05.766Z,40.1
2018-07-09T16:36:05.982Z,40.4
2018-07-09T16:38:05.709Z,40.5
2018-07-09T16:40:07.944Z,40.6
2018-07-09T16:42:05.638Z,40.6
2018-07-09T16:44:05.341Z,40.7
2018-07-09T16:46:05.056Z,40.6
2018-07-09T16:48:07.871Z,40.6
2018-07-09T16:50:05.606Z,40.6
2018-07-09T16:52:05.422Z,40.6
2018-07-09T16:54:15.325Z,40.7
2018-07-09T16:56:10.136Z,40.7
2018-07-09T16:58:05.104Z,40.7
2018-07-09T17:00:07.936Z,40.7
2018-07-09T17:02:05.651Z,40.7
2018-07-09T17:04:05.336Z,40.8
2018-07-09T17:06:05.085Z,40.8
2018-07-09T17:08:05.795Z,41
2018-07-09T17:10:05.577Z,40.8
2018-07-09T17:12:10.296Z,40.9
2018-07-09T17:14:08.191Z,40.8
2018-07-09T17:16:05.893Z,40.8
2018-07-09T17:18:05.795Z,41.1
2018-07-09T17:20:10.564Z,41
2018-07-09T17:22:05.254Z,41
2018-07-09T17:24:05.509Z,41
2018-07-09T17:26:05.306Z,41
2018-07-09T17:28:07.840Z,41.1
2018-07-09T17:30:06.117Z,41.1
2018-07-09T17:32:05.964Z,41.1
2018-07-09T17:34:05.910Z,41.1
2018-07-09T17:36:08.122Z,41.1
2018-07-09T17:38:05.804Z,41.1
2018-07-09T17:40:05.572Z,41.2
2018-07-09T17:42:05.369Z,41.1
2018-07-09T17:44:05.233Z,41.1
2018-07-09T17:46:05.299Z,41.3
2018-07-09T17:48:11.019Z,41.2
2018-07-09T17:50:08.562Z,41.2
2018-07-09T17:52:06.072Z,41.1
2018-07-09T17:54:11.131Z,41.3
2018-07-09T17:56:10.206Z,41.3
2018-07-09T17:58:05.974Z,41.3
2018-07-09T18:00:11.407Z,41.5
2018-07-09T18:02:09.166Z,41.6
2018-07-09T18:04:06.698Z,41.6
2018-07-09T18:06:06.300Z,41.6
2018-07-09T18:08:05.229Z,41.7
2018-07-09T18:10:05.901Z,41.6
2018-07-09T18:12:05.203Z,41.8
2018-07-09T18:14:10.480Z,41.8
2018-07-09T18:16:05.214Z,41.8
2018-07-09T18:18:07.622Z,41.9
2018-07-09T18:20:05.850Z,41.9
2018-07-09T18:22:08.284Z,41.9
2018-07-09T18:24:06.024Z,41.9
2018-07-09T18:26:05.740Z,41.9
2018-07-09T18:28:08.484Z,42.1
2018-07-09T18:30:05.225Z,42.1
2018-07-09T18:32:05.883Z,41.9
2018-07-09T18:34:05.662Z,42.1
2018-07-09T18:36:09.330Z,42.1
2018-07-09T18:38:07.752Z,42.1
2018-07-09T18:40:05.392Z,42.1
2018-07-09T18:42:05.450Z,41.9
2018-07-09T18:44:05.348Z,41.9
2018-07-09T18:46:05.039Z,41.7
2018-07-09T18:48:05.855Z,41.9
2018-07-09T18:50:05.118Z,41.9
2018-07-09T18:52:09.336Z,41.7
2018-07-09T18:54:05.087Z,41.7
2018-07-09T18:56:08.777Z,41.9
2018-07-09T18:58:05.684Z,41.9
2018-07-09T19:00:05.690Z,41.7
2018-07-09T19:02:05.107Z,41.9
2018-07-09T19:04:15.932Z,41.7
2018-07-09T19:06:10.751Z,41.7
2018-07-09T19:08:05.467Z,41.7
2018-07-09T19:10:05.446Z,41.7
2018-07-09T19:12:05.357Z,41.6
2018-07-09T19:14:07.785Z,41.9
2018-07-09T19:16:08.115Z,41.9
2018-07-09T19:18:16.139Z,41.9
2018-07-09T19:20:05.795Z,41.9
2018-07-09T19:22:07.024Z,42
2018-07-09T19:24:06.102Z,42.1
2018-07-09T19:26:05.184Z,42.3
2018-07-09T19:28:08.208Z,42.3
2018-07-09T19:30:05.213Z,42.4
2018-07-09T19:32:11.737Z,42.3
2018-07-09T19:34:05.642Z,42.3
2018-07-09T19:36:05.538Z,42.1
2018-07-09T19:38:05.252Z,42.3
2018-07-09T19:40:05.928Z,42.4
2018-07-09T19:42:05.174Z,42.5
2018-07-09T19:44:05.919Z,42.5
2018-07-09T19:46:05.890Z,42.5
2018-07-09T19:48:05.929Z,42.5
2018-07-09T19:50:08.221Z,42.6
2018-07-09T19:52:08.392Z,42.6
2018-07-09T19:54:07.758Z,42.8
2018-07-09T19:56:05.476Z,42.8
2018-07-09T19:58:07.722Z,42.7
2018-07-09T20:00:05.413Z,42.8
2018-07-09T20:02:10.329Z,43
2018-07-09T20:04:08.025Z,42.9
2018-07-09T20:06:05.810Z,42.9
2018-07-09T20:08:05.533Z,42.9
2018-07-09T20:10:10.392Z,43.1
2018-07-09T20:12:05.065Z,42.9
2018-07-09T20:14:05.566Z,43
2018-07-09T20:16:05.221Z,43
2018-07-09T20:18:05.697Z,43
2018-07-09T20:20:05.433Z,43.3
2018-07-09T20:22:05.138Z,43.2
2018-07-09T20:24:06.268Z,43.2
2018-07-09T20:26:05.490Z,43.3
2018-07-09T20:28:05.158Z,43.3
2018-07-09T20:30:08.375Z,43.4
2018-07-09T20:32:05.063Z,43.4
2018-07-09T20:34:05.985Z,43.6
2018-07-09T20:36:05.672Z,43.6
2018-07-09T20:38:07.944Z,43.8
2018-07-09T20:40:11.797Z,43.9
2018-07-09T20:42:05.829Z,43.9
2018-07-09T20:44:05.060Z,43.7
2018-07-09T20:46:05.768Z,43.8
2018-07-09T20:48:05.492Z,44.1
2018-07-09T20:50:07.789Z,44.1
2018-07-09T20:52:10.569Z,44.1
2018-07-09T20:54:05.503Z,44
2018-07-09T20:56:05.215Z,44.1
2018-07-09T20:58:06.079Z,44.2
2018-07-09T21:00:05.765Z,44.2
2018-07-09T21:02:05.499Z,44.3
2018-07-09T21:04:05.203Z,44.3
2018-07-09T21:06:05.636Z,44.4
2018-07-09T21:08:05.396Z,44.3
2018-07-09T21:10:05.084Z,44.3
2018-07-09T21:12:08.339Z,44.3
2018-07-09T21:14:05.036Z,44.3
2018-07-09T21:16:08.902Z,44.5
2018-07-09T21:18:05.612Z,44.3
2018-07-09T21:20:08.861Z,44.4
2018-07-09T21:22:05.690Z,44.3
2018-07-09T21:24:05.236Z,44.5
2018-07-09T21:26:05.919Z,44.5
2018-07-09T21:28:05.711Z,44.3
2018-07-09T21:30:05.384Z,44.3
2018-07-09T21:32:05.056Z,44.4
2018-07-09T21:34:05.854Z,44.3
2018-07-09T21:36:07.549Z,44.2
2018-07-09T21:38:10.299Z,44.3
2018-07-09T21:40:11.369Z,44.3
2018-07-09T21:42:05.060Z,44.3
2018-07-09T21:44:05.805Z,44.2
2018-07-09T21:46:08.012Z,44.2
2018-07-09T21:48:11.355Z,44.2
2018-07-09T21:50:05.085Z,44.3
2018-07-09T21:52:05.775Z,44.3
2018-07-09T21:54:05.548Z,44.2
2018-07-09T21:56:07.742Z,44.2
2018-07-09T21:58:05.391Z,44.2
2018-07-09T22:00:05.056Z,44.1
2018-07-09T22:02:05.779Z,44
2018-07-09T22:04:08.001Z,44
2018-07-09T22:06:08.249Z,44
2018-07-09T22:08:05.563Z,44
2018-07-09T22:10:13.015Z,44
2018-07-09T22:12:08.297Z,43.9
2018-07-09T22:14:07.592Z,44.1
2018-07-09T22:16:05.320Z,44.1
2018-07-09T22:18:05.419Z,44
2018-07-09T22:20:05.664Z,43.9
2018-07-09T22:22:05.364Z,44
2018-07-09T22:24:05.069Z,44
2018-07-09T22:26:05.764Z,43.8
2018-07-09T22:28:08.166Z,43.8
2018-07-09T22:30:10.881Z,44
2018-07-09T22:32:05.605Z,44
2018-07-09T22:34:05.299Z,44
2018-07-09T22:36:05.552Z,44
2018-07-09T22:38:08.033Z,43.9
2018-07-09T22:40:05.826Z,43.9
2018-07-09T22:42:05.959Z,43.8
2018-07-09T22:44:05.994Z,43.8
2018-07-09T22:46:08.249Z,43.8
2018-07-09T22:48:05.457Z,43.6
2018-07-09T22:50:08.314Z,43.7
2018-07-09T22:52:05.586Z,43.6
2018-07-09T22:54:05.264Z,43.6
2018-07-09T22:56:08.529Z,43.5
2018-07-09T22:58:07.849Z,43.6
2018-07-09T23:00:05.528Z,43.6
2018-07-09T23:02:05.242Z,43.5
2018-07-09T23:04:05.906Z,43.5
2018-07-09T23:06:15.682Z,43.4
2018-07-09T23:08:05.938Z,43.4
2018-07-09T23:10:05.694Z,43.6
2018-07-09T23:12:05.347Z,43.5
2018-07-09T23:14:13.114Z,43.3
2018-07-09T23:16:05.306Z,43.2
2018-07-09T23:18:05.340Z,43.4
2018-07-09T23:20:05.059Z,43.4
2018-07-09T23:22:05.800Z,43.4
2018-07-09T23:24:06.021Z,43.4
2018-07-09T23:26:05.757Z,43.2
2018-07-09T23:28:05.026Z,43.2
2018-07-09T23:30:05.678Z,43.2
2018-07-09T23:32:05.581Z,43.1
2018-07-09T23:34:07.850Z,43.2
2018-07-09T23:36:08.109Z,43.1
2018-07-09T23:38:05.807Z,43.1
2018-07-09T23:40:08.035Z,43.1
2018-07-09T23:42:05.815Z,43.1
2018-07-09T23:44:05.637Z,43
2018-07-09T23:46:05.857Z,43
2018-07-09T23:48:05.541Z,43
2018-07-09T23:50:05.301Z,43
2018-07-09T23:52:11.125Z,42.8
2018-07-09T23:54:05.810Z,42.9
2018-07-09T23:56:05.461Z,42.8
2018-07-09T23:58:05.225Z,42.8
